Time;durP1;ratioP1;P1;durP2;ratioP2;P2;SDS_P1;SDS_P2;PMS_P1;PMS_P2;Temp;Humidity;BMP_temperature;BMP_pressure;BME280_temperature;BME280_humidity;BME280_pressure;Samples;Min_cycle;Max_cycle;Signal;HPM_P1;HPM_P2
2021/09/13 00:02:04;;;;;;;10.23;4.07;;;;;;;13.32;84.18;102001.47;5010706;28;20073;-81
2021/09/13 00:04:30;;;;;;;5.68;4.20;;;;;;;13.33;83.69;101995.28;5011431;28;20076;-81
2021/09/13 00:06:55;;;;;;;4.22;3.83;;;;;;;13.44;83.29;102003.66;5004070;28;20034;-81
2021/09/13 00:09:21;;;;;;;4.45;3.92;;;;;;;13.15;84.06;101997.59;5014151;28;20029;-81
2021/09/13 00:11:46;;;;;;;5.50;3.97;;;;;;;13.09;84.99;101997.78;5007463;28;20033;-80
2021/09/13 00:14:12;;;;;;;6.70;4.40;;;;;;;13.06;84.82;101996.13;5015348;28;20083;-81
2021/09/13 00:16:37;;;;;;;8.88;4.22;;;;;;;12.96;84.48;101993.84;4996817;28;20048;-80
2021/09/13 00:19:03;;;;;;;6.50;4.80;;;;;;;12.89;85.71;102000.22;4984642;28;20030;-81
2021/09/13 00:21:28;;;;;;;6.60;5.57;;;;;;;12.80;86.13;102006.63;4987549;28;20045;-80
2021/09/13 00:23:53;;;;;;;5.35;4.85;;;;;;;12.75;85.60;101998.00;5003833;28;20033;-81
2021/09/13 00:26:19;;;;;;;5.25;4.35;;;;;;;12.62;85.81;102002.78;4987347;28;20477;-80
2021/09/13 00:28:44;;;;;;;5.97;4.68;;;;;;;12.44;86.17;102007.72;4992941;28;20079;-80
2021/09/13 00:31:10;;;;;;;7.97;4.32;;;;;;;12.51;85.91;102003.09;5027545;28;20045;-80
2021/09/13 00:33:35;;;;;;;8.02;4.38;;;;;;;12.67;85.61;101999.09;5009395;28;20029;-81
2021/09/13 00:36:01;;;;;;;5.00;4.10;;;;;;;12.60;85.63;102001.97;4991829;28;20033;-80
2021/09/13 00:38:27;;;;;;;4.97;4.25;;;;;;;12.47;86.04;101990.97;4991321;28;20026;-81
2021/09/13 00:40:52;;;;;;;6.80;4.32;;;;;;;12.49;86.13;101994.41;4991501;28;20289;-81
2021/09/13 00:43:18;;;;;;;5.43;3.70;;;;;;;12.32;86.06;101987.03;5023762;28;20030;-80
2021/09/13 00:45:43;;;;;;;4.90;4.30;;;;;;;12.24;86.96;101994.28;5008099;28;20030;-80
2021/09/13 00:48:09;;;;;;;9.95;4.43;;;;;;;12.25;87.32;101990.75;5003694;28;20037;-80
2021/09/13 00:50:34;;;;;;;5.45;4.22;;;;;;;12.36;86.65;101988.66;5006777;28;20101;-81
2021/09/13 00:52:59;;;;;;;4.93;4.00;;;;;;;12.61;85.80;101990.56;4991229;28;20028;-81
2021/09/13 00:55:25;;;;;;;4.30;4.00;;;;;;;12.37;86.72;101989.53;5010231;28;20025;-81
2021/09/13 00:57:51;;;;;;;8.07;4.55;;;;;;;12.31;87.28;101990.56;4994508;28;20068;-80
2021/09/13 01:00:16;;;;;;;6.45;4.28;;;;;;;12.29;87.22;101995.00;4990424;28;20034;-80
2021/09/13 01:02:42;;;;;;;9.00;4.20;;;;;;;12.24;87.14;101989.03;4991232;28;20333;-80
2021/09/13 01:05:08;;;;;;;4.65;4.25;;;;;;;12.19;87.14;101985.69;4991169;28;20379;-80
2021/09/13 01:07:34;;;;;;;7.30;3.85;;;;;;;12.21;87.38;101984.75;4974437;28;20282;-80
2021/09/13 01:10:00;;;;;;;5.30;4.25;;;;;;;12.32;86.96;101986.19;4979859;28;20025;-81
2021/09/13 01:12:25;;;;;;;3.85;3.40;;;;;;;12.09;86.29;101985.94;4975791;28;20253;-81
2021/09/13 01:14:50;;;;;;;7.85;4.40;;;;;;;12.09;87.03;101982.47;4989899;28;20021;-80
2021/09/13 01:17:16;;;;;;;4.70;3.97;;;;;;;12.12;87.14;101979.75;5006581;28;20034;-81
2021/09/13 01:19:41;;;;;;;4.40;3.95;;;;;;;11.98;88.10;101982.75;4993802;28;20029;-81
2021/09/13 01:22:07;;;;;;;7.32;4.05;;;;;;;12.46;86.45;101984.88;5010045;28;20033;-80
2021/09/13 01:24:32;;;;;;;5.63;4.15;;;;;;;12.19;87.22;101988.31;4991576;28;20035;-80
2021/09/13 01:27:03;;;;;;;10.45;4.68;;;;;;;12.39;86.77;101988.59;5006648;28;20072;-81
2021/09/13 01:29:28;;;;;;;11.18;4.13;;;;;;;12.65;86.04;101993.03;5006344;28;20097;-80
2021/09/13 01:31:54;;;;;;;5.88;3.78;;;;;;;12.41;87.49;101984.16;5009835;28;20271;-80
2021/09/13 01:34:19;;;;;;;7.57;3.90;;;;;;;12.40;86.90;101990.28;5009642;28;20236;-81
2021/09/13 01:36:45;;;;;;;5.40;3.80;;;;;;;12.27;87.53;101988.94;4991053;28;20061;-81
2021/09/13 01:39:10;;;;;;;4.57;3.67;;;;;;;12.18;87.56;101987.44;4988928;28;20051;-80
2021/09/13 01:41:35;;;;;;;7.30;4.20;;;;;;;12.18;87.88;101987.44;5009468;28;20037;-80
2021/09/13 01:44:01;;;;;;;5.50;3.95;;;;;;;12.14;87.86;101984.97;4985011;28;20021;-80
2021/09/13 01:46:26;;;;;;;6.18;4.82;;;;;;;12.06;88.15;101978.16;4974172;28;20348;-80
2021/09/13 01:48:52;;;;;;;5.43;3.92;;;;;;;12.33;87.30;101978.25;4998425;28;20030;-80
2021/09/13 01:51:17;;;;;;;4.55;3.58;;;;;;;12.30;87.47;101978.34;5024389;28;20374;-81
2021/09/13 01:53:42;;;;;;;6.85;4.03;;;;;;;12.24;87.72;101975.88;5024774;28;20060;-80
2021/09/13 01:56:08;;;;;;;6.05;4.20;;;;;;;12.59;86.29;101977.47;5006051;28;20329;-80
2021/09/13 01:58:33;;;;;;;7.35;4.45;;;;;;;12.58;86.37;101970.47;4994007;28;20038;-80
2021/09/13 02:00:59;;;;;;;4.25;3.90;;;;;;;12.40;86.76;101971.06;5015979;28;20029;-80
2021/09/13 02:03:24;;;;;;;6.88;4.40;;;;;;;12.29;87.91;101963.50;5009273;28;20075;-80
2021/09/13 02:05:49;;;;;;;6.97;4.50;;;;;;;12.20;88.76;101967.25;5017526;28;20049;-80
2021/09/13 02:08:15;;;;;;;5.90;4.57;;;;;;;12.49;87.37;101976.88;4989645;28;20108;-80
2021/09/13 02:10:40;;;;;;;9.18;4.88;;;;;;;12.50;87.98;101967.25;5024912;28;20041;-80
2021/09/13 02:13:06;;;;;;;4.53;4.07;;;;;;;12.32;88.01;101968.66;4995380;28;20040;-81
2021/09/13 02:15:31;;;;;;;6.70;4.28;;;;;;;12.34;87.90;101972.09;5004118;28;20042;-80
2021/09/13 02:17:57;;;;;;;5.53;4.20;;;;;;;12.40;88.09;101968.41;4990063;28;20387;-81
2021/09/13 02:20:22;;;;;;;5.15;4.43;;;;;;;12.31;88.31;101966.94;4995250;28;20030;-81
2021/09/13 02:22:47;;;;;;;8.65;4.68;;;;;;;12.26;88.77;101966.19;5025572;28;20268;-80
2021/09/13 02:25:13;;;;;;;6.45;5.05;;;;;;;12.33;88.80;101962.47;5005666;28;20037;-81
2021/09/13 02:27:38;;;;;;;8.82;5.50;;;;;;;12.28;88.86;101967.03;4992331;28;20033;-80
2021/09/13 02:30:04;;;;;;;4.78;4.45;;;;;;;12.33;89.03;101959.84;5021923;28;20037;-80
2021/09/13 02:32:29;;;;;;;8.68;4.85;;;;;;;12.24;89.29;101958.38;5023164;28;20042;-80
2021/09/13 02:34:55;;;;;;;10.18;5.03;;;;;;;12.33;88.95;101956.38;4992529;28;20033;-80
2021/09/13 02:37:20;;;;;;;5.05;4.57;;;;;;;12.36;88.47;101957.16;5008637;28;20034;-80
2021/09/13 02:39:46;;;;;;;8.60;4.90;;;;;;;12.39;88.99;101958.84;5014981;28;20042;-80
2021/09/13 02:42:11;;;;;;;7.88;4.35;;;;;;;12.56;87.73;101956.53;5009909;28;20348;-81
2021/09/13 02:44:37;;;;;;;6.65;4.03;;;;;;;12.44;87.79;101960.41;5022824;28;20030;-80
2021/09/13 02:47:02;;;;;;;6.28;4.20;;;;;;;12.40;88.18;101966.66;4989681;28;20040;-80
2021/09/13 02:49:28;;;;;;;6.10;4.50;;;;;;;12.69;87.58;101954.38;4996181;28;20233;-81
2021/09/13 02:51:53;;;;;;;5.03;4.43;;;;;;;12.58;88.05;101954.72;4997647;28;20026;-80
2021/09/13 02:54:19;;;;;;;6.38;4.40;;;;;;;12.64;87.88;101953.66;4989150;28;20045;-80
2021/09/13 02:56:46;;;;;;;5.32;4.60;;;;;;;12.60;87.91;101957.31;5000256;28;20077;-80
2021/09/13 02:59:14;;;;;;;8.30;4.75;;;;;;;12.82;87.10;101965.34;5008271;28;20064;-80
2021/09/13 03:01:40;;;;;;;9.68;4.18;;;;;;;12.62;87.60;101961.59;5018279;28;20097;-79
2021/09/13 03:04:05;;;;;;;4.28;3.97;;;;;;;12.66;87.45;101962.34;5024414;28;20029;-79
2021/09/13 03:06:30;;;;;;;5.97;3.85;;;;;;;12.56;87.77;101969.66;5002263;28;20707;-80
2021/09/13 03:08:56;;;;;;;5.43;3.75;;;;;;;12.65;87.60;101969.38;4988857;28;20033;-80
2021/09/13 03:11:22;;;;;;;7.63;4.00;;;;;;;12.45;88.76;101961.25;5034792;28;20049;-79
2021/09/13 03:13:48;;;;;;;4.85;3.95;;;;;;;12.79;88.07;101960.22;4988565;28;20030;-80
2021/09/13 03:16:13;;;;;;;6.25;4.20;;;;;;;12.81;87.49;101961.88;5023001;28;20036;-80
2021/09/13 03:18:40;;;;;;;4.85;4.18;;;;;;;12.75;88.64;101955.94;5024142;28;20083;-80
2021/09/13 03:21:05;;;;;;;4.25;3.85;;;;;;;12.85;88.21;101955.59;4991639;28;20048;-81
2021/09/13 03:23:31;;;;;;;4.20;3.88;;;;;;;12.94;88.18;101951.81;4990846;28;20041;-80
2021/09/13 03:25:56;;;;;;;6.13;4.05;;;;;;;12.93;88.35;101960.59;4992251;28;20030;-80
2021/09/13 03:28:22;;;;;;;4.88;3.95;;;;;;;12.94;88.10;101950.97;5009040;28;20328;-80
2021/09/13 03:30:47;;;;;;;4.78;4.35;;;;;;;13.06;87.76;101950.53;4987356;28;20022;-80
2021/09/13 03:33:13;;;;;;;4.20;3.80;;;;;;;13.19;87.11;101957.13;5003836;28;20046;-80
2021/09/13 03:35:38;;;;;;;4.88;3.45;;;;;;;13.15;87.57;101958.16;5004355;28;20502;-79
2021/09/13 03:38:03;;;;;;;6.55;4.20;;;;;;;13.00;88.61;101961.28;5017176;28;20047;-79
2021/09/13 03:40:29;;;;;;;4.30;3.97;;;;;;;13.20;87.38;101950.94;5029898;28;20044;-79
2021/09/13 03:42:54;;;;;;;4.40;4.00;;;;;;;13.02;88.14;101948.94;4998933;28;20033;-79
2021/09/13 03:45:20;;;;;;;7.25;3.80;;;;;;;13.23;87.79;101942.97;5023685;28;20040;-79
2021/09/13 03:47:45;;;;;;;7.55;4.13;;;;;;;13.23;87.77;101944.72;5040759;28;20340;-79
2021/09/13 03:50:13;;;;;;;4.78;4.28;;;;;;;13.24;88.35;101943.81;5004737;28;20033;-80
2021/09/13 03:52:39;;;;;;;10.80;5.00;;;;;;;13.29;87.56;101939.25;5011223;28;20060;-79
2021/09/13 03:55:05;;;;;;;6.80;4.13;;;;;;;13.27;87.41;101946.34;5023838;28;20068;-79
2021/09/13 03:57:30;;;;;;;6.70;4.00;;;;;;;13.27;88.00;101951.59;4987652;28;20051;-80
2021/09/13 03:59:56;;;;;;;6.07;4.78;;;;;;;13.17;88.93;101947.56;4987173;28;20026;-79
2021/09/13 04:02:21;;;;;;;7.68;4.07;;;;;;;13.24;87.84;101935.91;4987922;28;20368;-79
2021/09/13 04:04:49;;;;;;;6.18;4.40;;;;;;;13.20;87.42;101943.03;4991972;28;20190;-80
2021/09/13 04:07:20;;;;;;;5.03;4.03;;;;;;;13.39;86.90;101935.44;4994378;28;20078;-79
2021/09/13 04:12:31;;;;;;;12.00;5.28;;;;;;;13.18;87.87;101942.25;5012740;28;20103;-79
2021/09/13 04:14:57;;;;;;;6.43;4.65;;;;;;;13.19;88.40;101943.13;5007797;28;20324;-79
2021/09/13 04:17:23;;;;;;;8.23;4.55;;;;;;;13.19;88.27;101943.13;5009613;28;20334;-79
2021/09/13 04:19:48;;;;;;;8.07;4.10;;;;;;;13.17;87.58;101940.53;4994704;28;20102;-80
2021/09/13 04:22:14;;;;;;;11.05;4.57;;;;;;;13.19;87.50;101936.09;5026495;28;20033;-80
2021/09/13 04:24:39;;;;;;;15.10;5.25;;;;;;;13.11;87.46;101942.50;5025209;28;20042;-79
2021/09/13 04:27:05;;;;;;;11.98;4.95;;;;;;;13.10;88.13;101946.03;5007551;28;20033;-80
2021/09/13 04:29:30;;;;;;;7.03;4.30;;;;;;;13.08;87.63;101946.13;5024837;28;20035;-80
2021/09/13 04:31:56;;;;;;;14.25;4.80;;;;;;;13.25;87.68;101945.53;5007452;28;20042;-80
2021/09/13 04:34:21;;;;;;;10.38;4.85;;;;;;;13.36;87.28;101945.19;4987493;28;20068;-80
2021/09/13 04:36:47;;;;;;;7.40;4.35;;;;;;;13.51;86.92;101947.28;5007619;28;20029;-79
2021/09/13 04:39:12;;;;;;;7.38;4.78;;;;;;;13.27;87.68;101942.84;5039298;28;20074;-80
2021/09/13 04:41:38;;;;;;;6.80;4.68;;;;;;;13.19;88.77;101956.28;5026764;28;20040;-79
2021/09/13 04:44:03;;;;;;;7.38;4.57;;;;;;;13.08;89.04;101951.38;5005545;28;20041;-80
2021/09/13 04:46:29;;;;;;;20.77;6.97;;;;;;;13.21;88.08;101954.44;5010262;28;20029;-79
2021/09/13 04:48:54;;;;;;;10.00;5.38;;;;;;;13.28;86.96;101942.81;5026984;28;20026;-80
2021/09/13 04:51:20;;;;;;;8.13;5.38;;;;;;;13.39;87.92;101955.63;5025950;28;20255;-80
2021/09/13 04:53:45;;;;;;;11.00;4.88;;;;;;;13.54;87.27;101955.06;5018912;28;20033;-81
2021/09/13 04:56:11;;;;;;;11.25;5.25;;;;;;;13.42;88.61;101942.34;5006571;28;20396;-80
2021/09/13 04:58:36;;;;;;;3.80;1.55;;;;;;;15.47;80.29;101948.41;5009857;28;20033;-80
2021/09/13 05:01:02;;;;;;;6.30;1.40;;;;;;;16.61;75.36;101947.66;5010475;28;20040;-80
2021/09/13 05:03:27;;;;;;;4.28;1.60;;;;;;;17.03;73.11;101950.00;5005706;28;20109;-80
2021/09/13 05:05:54;;;;;;;6.00;1.58;;;;;;;17.37;71.72;101952.69;4999160;28;20021;-80
2021/09/13 05:08:20;;;;;;;3.60;1.40;;;;;;;17.63;70.47;101956.66;5000948;28;20017;-80
2021/09/13 05:10:45;;;;;;;1.90;1.10;;;;;;;17.93;69.48;101955.97;5020172;28;20050;-80
2021/09/13 05:13:11;;;;;;;1.77;1.15;;;;;;;17.91;69.29;101953.41;5003616;28;20215;-81
2021/09/13 05:15:36;;;;;;;4.53;1.48;;;;;;;18.09;68.52;101963.97;5002464;28;20041;-80
2021/09/13 05:18:02;;;;;;;4.70;1.10;;;;;;;18.15;67.94;101959.16;5036406;28;20056;-81
2021/09/13 05:20:27;;;;;;;2.80;1.02;;;;;;;18.16;68.02;101960.03;5034497;28;20026;-81
2021/09/13 05:22:52;;;;;;;3.08;0.95;;;;;;;18.12;68.15;101958.47;5034741;28;20021;-80
2021/09/13 05:25:19;;;;;;;1.63;1.25;;;;;;;18.17;67.73;101962.59;5010675;28;20521;-80
2021/09/13 05:27:45;;;;;;;3.97;1.30;;;;;;;18.21;67.75;101969.44;5031522;28;20045;-80
2021/09/13 05:30:11;;;;;;;3.55;1.92;;;;;;;18.28;67.48;101972.63;5016703;28;20046;-81
2021/09/13 05:32:36;;;;;;;2.55;1.50;;;;;;;18.26;67.57;101966.53;5032805;28;20392;-80
2021/09/13 05:35:02;;;;;;;2.15;1.15;;;;;;;18.29;67.43;101976.13;5015783;28;20035;-81
2021/09/13 05:37:28;;;;;;;2.42;1.10;;;;;;;18.30;67.15;101972.50;5034056;28;20052;-80
2021/09/13 05:39:53;;;;;;;2.58;1.00;;;;;;;18.30;67.32;101975.16;5029090;28;20075;-80
2021/09/13 05:42:19;;;;;;;4.05;1.98;;;;;;;18.04;67.28;101980.09;4986789;28;20042;-81
2021/09/13 05:44:44;;;;;;;3.85;1.42;;;;;;;17.86;68.81;101967.84;5014276;28;20071;-81
2021/09/13 05:47:09;;;;;;;6.10;1.35;;;;;;;17.81;69.06;101968.91;5004317;28;20248;-81
2021/09/13 05:49:35;;;;;;;1.55;1.00;;;;;;;18.25;67.54;101969.28;5012695;28;20265;-81
2021/09/13 05:52:00;;;;;;;1.88;1.00;;;;;;;18.45;66.55;101970.84;5009777;28;20034;-81
2021/09/13 05:54:26;;;;;;;4.22;1.00;;;;;;;18.76;65.67;101972.59;5001802;28;20030;-81
2021/09/13 05:56:54;;;;;;;1.92;1.00;;;;;;;18.85;65.20;101979.22;5001881;28;20029;-81
2021/09/13 05:59:24;;;;;;;1.58;1.33;;;;;;;18.89;64.97;101975.44;5004814;28;20049;-81
2021/09/13 06:01:49;;;;;;;1.35;1.00;;;;;;;18.95;64.58;101967.94;5001026;28;20067;-81
2021/09/13 06:04:15;;;;;;;2.00;1.17;;;;;;;19.04;64.33;101971.88;5041703;28;20025;-81
2021/09/13 06:06:41;;;;;;;2.17;1.45;;;;;;;19.24;63.61;101975.16;5026856;28;20037;-82
2021/09/13 06:09:07;;;;;;;3.55;1.23;;;;;;;19.32;63.25;101972.91;5009019;28;20048;-81
2021/09/13 06:11:32;;;;;;;2.20;1.13;;;;;;;19.33;62.99;101982.56;4992902;28;20046;-82
2021/09/13 06:13:58;;;;;;;2.08;1.02;;;;;;;19.21;63.27;101978.88;4989453;28;20057;-81
2021/09/13 06:16:23;;;;;;;2.08;0.93;;;;;;;19.31;62.93;101980.00;5014065;28;20040;-81
2021/09/13 06:18:49;;;;;;;3.25;1.10;;;;;;;19.63;61.74;101974.56;5006631;28;20045;-82
2021/09/13 06:21:14;;;;;;;4.32;1.27;;;;;;;19.94;61.09;101973.56;4993983;28;20041;-81
2021/09/13 06:23:40;;;;;;;2.38;1.33;;;;;;;20.25;59.85;101973.44;5008513;28;20092;-81
2021/09/13 06:26:05;;;;;;;1.88;1.13;;;;;;;20.43;59.24;101982.03;5040821;28;20100;-80
2021/09/13 06:28:31;;;;;;;2.53;1.20;;;;;;;20.65;58.68;101986.88;5041892;28;20040;-80
2021/09/13 06:30:56;;;;;;;2.65;0.98;;;;;;;20.76;58.48;101991.50;5023107;28;20116;-81
2021/09/13 06:33:22;;;;;;;5.32;1.30;;;;;;;20.74;58.36;101983.59;5030750;28;20065;-81
2021/09/13 06:35:47;;;;;;;3.85;1.02;;;;;;;20.88;58.03;101986.22;5015653;28;20052;-81
2021/09/13 06:38:13;;;;;;;3.15;1.00;;;;;;;20.90;57.62;101994.06;5030942;28;20039;-82
2021/09/13 06:40:39;;;;;;;1.58;0.82;;;;;;;20.74;58.31;102001.34;4995238;28;20113;-82
2021/09/13 06:43:04;;;;;;;4.03;2.00;;;;;;;20.84;58.33;101999.81;5011351;28;20237;-82
2021/09/13 06:45:39;;;;;;;4.28;3.22;;;;;;;21.27;59.30;101992.47;4981726;28;20033;-82
2021/09/13 06:48:05;;;;;;;5.03;1.23;;;;;;;21.73;55.74;101999.13;5033977;28;20029;-82
2021/09/13 06:50:30;;;;;;;2.08;1.42;;;;;;;21.84;55.46;102001.06;5022272;28;20045;-82
2021/09/13 06:52:56;;;;;;;1.85;1.17;;;;;;;21.87;55.25;101998.19;5029711;28;20030;-82
2021/09/13 06:55:21;;;;;;;6.13;1.00;;;;;;;21.25;57.33;101994.38;5027005;28;20059;-81
2021/09/13 06:57:48;;;;;;;3.90;1.35;;;;;;;21.26;57.96;101988.09;5026254;28;20249;-80
2021/09/13 07:00:14;;;;;;;4.50;1.40;;;;;;;21.34;57.62;101984.03;5012118;28;20352;-79
2021/09/13 07:02:42;;;;;;;1.75;1.05;;;;;;;21.43;57.86;101991.44;4986714;28;20038;-79
2021/09/13 07:05:08;;;;;;;7.88;2.45;;;;;;;21.34;58.84;101992.03;5033817;28;20079;-81
2021/09/13 07:07:33;;;;;;;6.15;3.20;;;;;;;22.10;57.89;101995.69;5000899;28;20112;-83
2021/09/13 07:09:59;;;;;;;9.02;2.20;;;;;;;22.03;58.06;101997.97;5005000;28;20123;-81
2021/09/13 07:12:25;;;;;;;8.90;1.73;;;;;;;21.98;58.21;102000.94;4995474;28;20033;-83
2021/09/13 07:14:51;;;;;;;7.50;2.67;;;;;;;22.17;58.25;102003.13;4989389;28;20045;-82
2021/09/13 07:17:16;;;;;;;7.47;1.92;;;;;;;20.92;59.73;102004.63;5018080;28;20103;-82
2021/09/13 07:19:42;;;;;;;14.07;2.22;;;;;;;21.26;61.01;102003.22;4991653;28;20133;-82
2021/09/13 07:22:07;;;;;;;6.07;1.83;;;;;;;21.77;58.70;102005.97;4997266;28;20041;-82
2021/09/13 07:24:33;;;;;;;3.53;1.35;;;;;;;21.49;57.62;102008.84;5008234;28;20279;-82
2021/09/13 07:26:58;;;;;;;6.30;1.60;;;;;;;21.62;57.04;102018.53;4995220;28;20029;-82
2021/09/13 07:29:25;;;;;;;7.35;1.67;;;;;;;21.05;58.86;102016.19;5016455;28;20033;-82
2021/09/13 07:31:50;;;;;;;2.85;1.23;;;;;;;20.85;58.44;102017.50;5002441;28;20111;-81
2021/09/13 07:34:16;;;;;;;8.75;1.98;;;;;;;21.29;61.07;102016.34;5023172;28;20045;-81
2021/09/13 07:36:41;;;;;;;20.90;2.70;;;;;;;21.62;60.67;102021.22;5002310;28;20037;-82
2021/09/13 07:39:06;;;;;;;4.40;1.52;;;;;;;21.06;56.66;102018.72;5022318;28;20036;-82
2021/09/13 07:41:32;;;;;;;19.13;2.40;;;;;;;21.13;60.61;102021.00;5040378;28;20043;-81
2021/09/13 07:43:57;;;;;;;20.80;2.17;;;;;;;21.24;61.32;102021.97;5001269;28;20060;-82
2021/09/13 07:46:23;;;;;;;23.38;1.92;;;;;;;21.46;58.75;102023.22;5002017;28;20052;-82
2021/09/13 07:48:48;;;;;;;27.35;3.70;;;;;;;21.67;61.12;102021.75;4995221;28;20025;-80
2021/09/13 07:51:14;;;;;;;30.15;3.03;;;;;;;21.82;61.32;102033.16;5015674;28;20100;-81
2021/09/13 07:53:39;;;;;;;27.00;3.08;;;;;;;21.90;60.67;102026.44;5013799;28;20045;-82
2021/09/13 07:56:05;;;;;;;12.95;2.05;;;;;;;21.90;60.56;102024.63;5001344;28;20037;-82
2021/09/13 07:58:30;;;;;;;10.13;1.60;;;;;;;21.85;59.09;102016.13;5021815;28;20049;-82
2021/09/13 08:00:55;;;;;;;13.77;2.55;;;;;;;21.87;60.19;102022.19;5018902;28;20033;-83
2021/09/13 08:03:21;;;;;;;31.30;2.42;;;;;;;21.84;60.49;102027.72;4998366;28;20037;-82
2021/09/13 08:05:46;;;;;;;16.58;2.05;;;;;;;21.97;59.78;102031.22;4989275;28;20022;-81
2021/09/13 08:08:12;;;;;;;18.70;2.25;;;;;;;22.09;58.15;102036.69;4979158;28;20029;-82
2021/09/13 08:10:38;;;;;;;10.05;1.85;;;;;;;22.15;58.67;102038.91;5003885;28;20068;-82
2021/09/13 08:13:03;;;;;;;6.55;1.58;;;;;;;22.13;58.69;102039.00;5023280;28;20061;-82
2021/09/13 08:15:29;;;;;;;10.18;2.47;;;;;;;22.19;59.05;102040.38;4998085;28;20043;-82
2021/09/13 08:17:54;;;;;;;7.00;1.85;;;;;;;22.30;58.77;102037.00;5009059;28;20029;-82
2021/09/13 08:20:20;;;;;;;10.68;1.65;;;;;;;22.33;58.75;102032.28;5007145;28;20037;-81
2021/09/13 08:22:45;;;;;;;11.05;2.45;;;;;;;22.39;58.03;102034.53;4987906;28;20329;-80
2021/09/13 08:25:12;;;;;;;18.80;2.55;;;;;;;22.35;58.94;102030.34;5008307;28;20034;-80
2021/09/13 08:27:38;;;;;;;15.50;2.10;;;;;;;22.40;58.60;102038.88;5000571;28;20037;-81
2021/09/13 08:30:05;;;;;;;20.80;2.33;;;;;;;22.45;58.80;102037.69;5004822;28;20068;-81
2021/09/13 08:32:30;;;;;;;13.73;2.35;;;;;;;22.45;58.32;102040.38;4994841;28;20033;-80
2021/09/13 08:34:56;;;;;;;16.83;2.17;;;;;;;22.48;58.65;102045.50;5014069;28;20048;-80
2021/09/13 08:37:21;;;;;;;11.82;2.00;;;;;;;22.56;58.06;102046.66;4992404;28;20349;-80
2021/09/13 08:39:47;;;;;;;12.65;2.08;;;;;;;22.58;56.96;102051.88;5015515;28;20258;-80
2021/09/13 08:42:12;;;;;;;8.63;1.63;;;;;;;22.58;57.80;102051.88;5001345;28;20056;-81
2021/09/13 08:44:39;;;;;;;10.00;2.30;;;;;;;22.56;57.22;102059.16;4999051;28;20051;-81
2021/09/13 08:47:16;;;;;;;5.07;2.00;;;;;;;22.45;57.91;102059.06;5000087;28;20041;-82
2021/09/13 08:49:41;;;;;;;9.85;1.77;;;;;;;22.45;58.27;102056.38;4997844;28;20264;-84
2021/09/13 08:52:07;;;;;;;14.55;2.28;;;;;;;22.66;57.41;102064.66;4991916;28;20093;-81
2021/09/13 08:54:36;;;;;;;4.22;1.70;;;;;;;22.41;55.01;102050.41;5006673;28;20353;-80
2021/09/13 08:57:04;;;;;;;11.55;2.33;;;;;;;22.70;57.92;102055.47;5006127;28;20038;-82
2021/09/13 08:59:31;;;;;;;6.68;1.67;;;;;;;22.82;57.38;102054.56;5012482;28;20021;-81
2021/09/13 09:01:59;;;;;;;3.83;1.40;;;;;;;22.24;52.73;102052.44;4995550;28;20057;-82
2021/09/13 09:04:25;;;;;;;5.72;1.75;;;;;;;22.77;56.53;102056.72;4984195;28;20036;-83
2021/09/13 09:06:50;;;;;;;6.93;1.65;;;;;;;22.48;56.76;102056.16;5008454;28;20037;-83
2021/09/13 09:09:20;;;;;;;4.43;1.27;;;;;;;22.74;52.52;102060.47;4992958;28;20022;-82
2021/09/13 09:12:02;;;;;;;6.07;1.27;;;;;;;22.45;52.83;102064.38;5006256;28;20132;-80
2021/09/13 09:14:28;;;;;;;4.85;1.15;;;;;;;20.99;55.71;102065.38;5025098;28;20320;-81
2021/09/13 09:16:57;;;;;;;4.07;1.45;;;;;;;20.40;57.81;102070.03;5022603;28;20021;-80
2021/09/13 09:19:22;;;;;;;2.47;1.30;;;;;;;21.34;56.61;102071.97;5019409;28;20049;-80
2021/09/13 09:21:48;;;;;;;4.78;2.20;;;;;;;20.88;57.35;102073.19;4991250;28;20045;-81
2021/09/13 09:24:14;;;;;;;4.07;1.80;;;;;;;20.87;56.27;102077.69;5021505;28;20032;-82
2021/09/13 09:26:39;;;;;;;4.90;1.95;;;;;;;20.92;57.45;102071.19;5030158;28;20240;-82
2021/09/13 09:29:04;;;;;;;12.88;2.60;;;;;;;22.03;55.56;102072.66;5006078;28;20100;-82
2021/09/13 09:31:44;;;;;;;5.38;2.13;;;;;;;21.24;55.93;102069.09;5015896;28;20053;-81
2021/09/13 09:34:14;;;;;;;46.17;3.53;;;;;;;22.18;57.97;102065.38;5008011;28;20091;-79
2021/09/13 09:36:40;;;;;;;6.90;2.10;;;;;;;22.41;54.10;102059.28;5014339;28;20028;-82
2021/09/13 09:39:10;;;;;;;2.70;1.55;;;;;;;22.02;53.48;102071.78;5011879;28;20021;-82
2021/09/13 09:41:40;;;;;;;4.13;1.95;;;;;;;23.25;51.65;102062.09;5009830;28;20325;-82
2021/09/13 09:44:06;;;;;;;3.63;1.92;;;;;;;23.55;49.22;102056.22;5011061;28;20111;-79
2021/09/13 09:46:38;;;;;;;4.88;2.42;;;;;;;22.46;51.43;102060.75;5005883;28;20307;-80
2021/09/13 09:49:04;;;;;;;3.97;2.03;;;;;;;22.64;51.34;102064.78;4994877;28;20037;-80
2021/09/13 09:51:36;;;;;;;7.43;2.72;;;;;;;23.38;52.58;102065.53;4994365;28;20026;-80
2021/09/13 09:54:16;;;;;;;7.63;2.50;;;;;;;24.34;48.23;102059.00;5011608;28;20044;-78
2021/09/13 09:56:42;;;;;;;3.78;2.88;;;;;;;23.62;50.70;102058.44;5022500;28;20029;-80
2021/09/13 09:59:08;;;;;;;4.25;1.95;;;;;;;21.37;54.70;102056.63;4995781;28;20072;-79
2021/09/13 10:01:38;;;;;;;6.10;2.40;;;;;;;21.25;53.42;102060.16;5006119;28;20075;-79
2021/09/13 10:04:22;;;;;;;5.32;2.10;;;;;;;22.28;54.82;102053.09;5030514;28;20037;-80
2021/09/13 10:06:48;;;;;;;23.58;3.03;;;;;;;22.78;56.84;102050.44;5029791;28;20049;-79
2021/09/13 10:09:14;;;;;;;12.45;2.30;;;;;;;22.67;53.74;102055.72;5027966;28;20045;-80
2021/09/13 10:11:40;;;;;;;2.90;1.67;;;;;;;21.75;54.32;102049.69;5021830;28;20044;-78
2021/09/13 10:14:06;;;;;;;3.83;1.90;;;;;;;22.33;52.95;102048.28;5013615;28;20036;-80
2021/09/13 10:16:32;;;;;;;3.40;1.80;;;;;;;22.37;51.36;102047.09;5015863;28;20092;-79
2021/09/13 10:18:58;;;;;;;4.35;1.17;;;;;;;21.97;51.52;102041.91;4992775;28;20026;-80
2021/09/13 10:21:25;;;;;;;2.13;0.85;;;;;;;22.41;50.06;102042.41;4997665;28;20068;-79
2021/09/13 10:23:50;;;;;;;2.47;1.20;;;;;;;22.40;50.00;102043.38;5018055;28;20052;-79
2021/09/13 10:26:16;;;;;;;3.10;0.90;;;;;;;21.90;51.61;102037.09;5008992;28;20030;-79
2021/09/13 10:29:14;;;;;;;1.35;1.25;;;;;;;21.56;52.22;102044.78;5018129;28;20033;-80
2021/09/13 10:31:42;;;;;;;5.28;1.45;;;;;;;20.35;55.50;102050.84;5036440;28;20111;-80
2021/09/13 10:34:30;;;;;;;;;;;;;;;21.40;54.52;102039.59;5033607;28;20076;-79
2021/09/13 10:37:19;;;;;;;1.50;1.33;;;;;;;20.86;54.93;102038.69;5032652;28;19967;-80
2021/09/13 10:39:48;;;;;;;;;;;;;;;20.21;56.76;102041.94;5016750;28;20049;-78
2021/09/13 10:42:36;;;;;;;9.05;2.00;;;;;;;21.93;54.01;102037.75;5022055;28;19921;-79
2021/09/13 10:45:08;;;;;;;3.28;2.13;;;;;;;19.84;58.88;102027.38;5010514;28;20136;-79
2021/09/13 10:47:34;;;;;;;2.92;1.70;;;;;;;20.85;55.29;102029.00;5044754;28;20088;-81
2021/09/13 10:50:31;;;;;;;2.25;2.00;;;;;;;20.82;56.05;102031.00;5033633;28;20037;-81
2021/09/13 10:52:57;;;;;;;3.25;1.70;;;;;;;20.10;59.05;102028.44;5058270;28;20088;-78
2021/09/13 10:55:27;;;;;;;3.22;2.00;;;;;;;20.44;57.56;102016.53;5013729;28;20255;-80
2021/09/13 10:58:10;;;;;;;3.60;2.35;;;;;;;19.77;59.55;102018.06;5019256;28;20059;-78
2021/09/13 11:00:44;;;;;;;3.28;1.85;;;;;;;19.63;59.90;102021.53;5011990;28;20092;-79
2021/09/13 11:03:22;;;;;;;7.50;1.40;;;;;;;19.16;59.95;102034.03;5035861;28;20051;-79
2021/09/13 11:06:06;;;;;;;2.45;1.90;;;;;;;19.81;59.38;102027.56;5037402;28;20088;-78
2021/09/13 11:09:02;;;;;;;2.42;1.33;;;;;;;19.89;60.38;102026.16;5036572;28;20045;-79
2021/09/13 11:11:31;;;;;;;1.42;1.33;;;;;;;19.87;58.88;102017.41;5029070;28;20030;-79
2021/09/13 11:13:57;;;;;;;0.70;0.65;;;;;;;19.64;56.89;102018.78;5007568;28;20030;-78
2021/09/13 11:16:22;;;;;;;2.22;0.98;;;;;;;19.05;58.74;102020.53;5020065;28;20049;-80
2021/09/13 11:18:48;;;;;;;2.50;0.85;;;;;;;19.09;59.68;102024.72;4991043;28;20135;-80
2021/09/13 11:21:23;;;;;;;1.23;0.75;;;;;;;19.30;59.61;102014.63;5015879;28;20048;-81
2021/09/13 11:23:52;;;;;;;1.60;1.00;;;;;;;19.54;59.06;102013.19;5024636;28;20017;-79
2021/09/13 11:26:20;;;;;;;1.73;1.02;;;;;;;19.19;59.96;102009.94;5010427;28;20201;-79